sensor_id;sensor_type;location;lat;lon;timestamp;temperature;humidity
21950;DHT22;11139;51.284;7.226;2022-07-12T00:01:05;18.60;99.90
21950;DHT22;11139;51.284;7.226;2022-07-12T00:03:31;18.60;99.90
21950;DHT22;11139;51.284;7.226;2022-07-12T00:05:56;18.60;99.90
21950;DHT22;11139;51.284;7.226;2022-07-12T00:08:23;18.60;99.90
21950;DHT22;11139;51.284;7.226;2022-07-12T00:10:48;18.60;99.90
21950;DHT22;11139;51.284;7.226;2022-07-12T00:13:14;18.60;99.90
21950;DHT22;11139;51.284;7.226;2022-07-12T00:15:41;18.60;99.90
21950;DHT22;11139;51.284;7.226;2022-07-12T00:18:06;18.60;99.90
21950;DHT22;11139;51.284;7.226;2022-07-12T00:20:32;18.60;99.90
21950;DHT22;11139;51.284;7.226;2022-07-12T00:22:57;18.60;99.90
21950;DHT22;11139;51.284;7.226;2022-07-12T00:25:23;18.60;99.90
21950;DHT22;11139;51.284;7.226;2022-07-12T00:27:48;18.60;99.90
21950;DHT22;11139;51.284;7.226;2022-07-12T00:30:15;18.60;99.90
21950;DHT22;11139;51.284;7.226;2022-07-12T00:32:40;18.50;99.90
21950;DHT22;11139;51.284;7.226;2022-07-12T00:35:06;18.50;99.90
21950;DHT22;11139;51.284;7.226;2022-07-12T00:37:35;18.50;99.90
21950;DHT22;11139;51.284;7.226;2022-07-12T00:40:01;18.50;99.90
21950;DHT22;11139;51.284;7.226;2022-07-12T00:42:30;18.50;99.90
21950;DHT22;11139;51.284;7.226;2022-07-12T00:44:55;18.50;99.90
21950;DHT22;11139;51.284;7.226;2022-07-12T00:50:10;18.50;99.90
21950;DHT22;11139;51.284;7.226;2022-07-12T00:52:36;18.50;99.90
21950;DHT22;11139;51.284;7.226;2022-07-12T00:55:16;18.50;99.90
21950;DHT22;11139;51.284;7.226;2022-07-12T00:57:53;18.50;99.90
21950;DHT22;11139;51.284;7.226;2022-07-12T01:00:43;18.50;99.90
21950;DHT22;11139;51.284;7.226;2022-07-12T01:03:11;18.50;99.90
21950;DHT22;11139;51.284;7.226;2022-07-12T01:05:39;18.40;99.90
21950;DHT22;11139;51.284;7.226;2022-07-12T01:08:05;18.40;99.90
21950;DHT22;11139;51.284;7.226;2022-07-12T01:10:32;18.40;99.90
21950;DHT22;11139;51.284;7.226;2022-07-12T01:12:58;18.40;99.90
21950;DHT22;11139;51.284;7.226;2022-07-12T01:15:24;18.40;99.90
21950;DHT22;11139;51.284;7.226;2022-07-12T01:17:53;18.40;99.90
21950;DHT22;11139;51.284;7.226;2022-07-12T01:20:30;18.40;99.90
21950;DHT22;11139;51.284;7.226;2022-07-12T01:22:59;18.40;99.90
21950;DHT22;11139;51.284;7.226;2022-07-12T01:25:25;18.40;99.90
21950;DHT22;11139;51.284;7.226;2022-07-12T01:27:50;18.40;99.90
21950;DHT22;11139;51.284;7.226;2022-07-12T01:30:19;18.40;99.90
21950;DHT22;11139;51.284;7.226;2022-07-12T01:32:50;18.30;99.90
21950;DHT22;11139;51.284;7.226;2022-07-12T01:35:16;18.40;99.90
21950;DHT22;11139;51.284;7.226;2022-07-12T01:37:42;18.30;99.90
21950;DHT22;11139;51.284;7.226;2022-07-12T01:40:09;18.30;99.90
21950;DHT22;11139;51.284;7.226;2022-07-12T01:42:34;18.30;99.90
21950;DHT22;11139;51.284;7.226;2022-07-12T01:45:00;18.30;99.90
21950;DHT22;11139;51.284;7.226;2022-07-12T01:47:28;18.30;99.90
21950;DHT22;11139;51.284;7.226;2022-07-12T01:49:54;18.30;99.90
21950;DHT22;11139;51.284;7.226;2022-07-12T01:52:26;18.30;99.90
21950;DHT22;11139;51.284;7.226;2022-07-12T01:54:53;18.30;99.90
21950;DHT22;11139;51.284;7.226;2022-07-12T01:57:19;18.30;99.90
21950;DHT22;11139;51.284;7.226;2022-07-12T01:59:44;18.30;99.90
21950;DHT22;11139;51.284;7.226;2022-07-12T02:02:18;18.30;99.90
21950;DHT22;11139;51.284;7.226;2022-07-12T02:04:46;18.20;99.90
21950;DHT22;11139;51.284;7.226;2022-07-12T02:07:15;18.30;99.90
21950;DHT22;11139;51.284;7.226;2022-07-12T02:09:41;18.30;99.90
21950;DHT22;11139;51.284;7.226;2022-07-12T02:12:09;18.20;99.90
21950;DHT22;11139;51.284;7.226;2022-07-12T02:14:35;18.30;99.90
21950;DHT22;11139;51.284;7.226;2022-07-12T02:17:00;18.20;99.90
21950;DHT22;11139;51.284;7.226;2022-07-12T02:19:28;18.20;99.90
21950;DHT22;11139;51.284;7.226;2022-07-12T02:21:54;18.20;99.90
21950;DHT22;11139;51.284;7.226;2022-07-12T02:24:31;18.20;99.90
21950;DHT22;11139;51.284;7.226;2022-07-12T02:26:56;18.20;99.90
21950;DHT22;11139;51.284;7.226;2022-07-12T02:29:22;18.10;99.90
21950;DHT22;11139;51.284;7.226;2022-07-12T02:31:48;18.20;99.90
21950;DHT22;11139;51.284;7.226;2022-07-12T02:34:16;18.20;99.90
21950;DHT22;11139;51.284;7.226;2022-07-12T02:36:41;18.20;99.90
21950;DHT22;11139;51.284;7.226;2022-07-12T02:39:07;18.20;99.90
21950;DHT22;11139;51.284;7.226;2022-07-12T02:41:33;18.10;99.90
21950;DHT22;11139;51.284;7.226;2022-07-12T02:44:01;18.10;99.90
21950;DHT22;11139;51.284;7.226;2022-07-12T02:46:27;18.10;99.90
21950;DHT22;11139;51.284;7.226;2022-07-12T02:48:53;18.10;99.90
21950;DHT22;11139;51.284;7.226;2022-07-12T02:51:18;18.10;99.90
21950;DHT22;11139;51.284;7.226;2022-07-12T02:53:44;18.10;99.90
21950;DHT22;11139;51.284;7.226;2022-07-12T02:56:12;18.10;99.90
21950;DHT22;11139;51.284;7.226;2022-07-12T02:58:38;18.10;99.90
21950;DHT22;11139;51.284;7.226;2022-07-12T03:01:04;18.10;99.90
21950;DHT22;11139;51.284;7.226;2022-07-12T03:03:29;18.10;99.90
21950;DHT22;11139;51.284;7.226;2022-07-12T03:05:55;18.10;99.90
21950;DHT22;11139;51.284;7.226;2022-07-12T03:08:21;18.10;99.90
21950;DHT22;11139;51.284;7.226;2022-07-12T03:10:47;18.10;99.90
21950;DHT22;11139;51.284;7.226;2022-07-12T03:13:16;18.00;99.90
21950;DHT22;11139;51.284;7.226;2022-07-12T03:15:44;18.10;99.90
21950;DHT22;11139;51.284;7.226;2022-07-12T03:18:11;18.00;99.90
21950;DHT22;11139;51.284;7.226;2022-07-12T03:20:37;18.00;99.90
21950;DHT22;11139;51.284;7.226;2022-07-12T03:23:02;18.00;99.90
21950;DHT22;11139;51.284;7.226;2022-07-12T03:25:28;18.00;99.90
21950;DHT22;11139;51.284;7.226;2022-07-12T03:27:53;18.00;99.90
21950;DHT22;11139;51.284;7.226;2022-07-12T03:30:19;18.00;99.90
21950;DHT22;11139;51.284;7.226;2022-07-12T03:32:45;18.00;99.90
21950;DHT22;11139;51.284;7.226;2022-07-12T03:35:14;18.00;99.90
21950;DHT22;11139;51.284;7.226;2022-07-12T03:37:43;18.00;99.90
21950;DHT22;11139;51.284;7.226;2022-07-12T03:40:08;18.00;99.90
21950;DHT22;11139;51.284;7.226;2022-07-12T03:42:34;18.00;99.90
21950;DHT22;11139;51.284;7.226;2022-07-12T03:45:03;17.90;99.90
21950;DHT22;11139;51.284;7.226;2022-07-12T03:47:28;17.90;99.90
21950;DHT22;11139;51.284;7.226;2022-07-12T03:49:57;18.00;99.90
21950;DHT22;11139;51.284;7.226;2022-07-12T03:52:29;17.90;99.90
21950;DHT22;11139;51.284;7.226;2022-07-12T03:55:01;17.90;99.90
21950;DHT22;11139;51.284;7.226;2022-07-12T03:57:29;17.90;99.90
21950;DHT22;11139;51.284;7.226;2022-07-12T03:59:55;17.90;99.90
21950;DHT22;11139;51.284;7.226;2022-07-12T04:02:21;17.90;99.90
21950;DHT22;11139;51.284;7.226;2022-07-12T04:04:50;17.90;99.90
21950;DHT22;11139;51.284;7.226;2022-07-12T04:07:16;17.90;99.90
21950;DHT22;11139;51.284;7.226;2022-07-12T04:09:45;17.90;99.90
21950;DHT22;11139;51.284;7.226;2022-07-12T04:12:11;17.90;99.90
21950;DHT22;11139;51.284;7.226;2022-07-12T04:14:44;17.90;99.90
21950;DHT22;11139;51.284;7.226;2022-07-12T04:17:09;17.90;99.90
21950;DHT22;11139;51.284;7.226;2022-07-12T04:19:37;17.80;99.90
21950;DHT22;11139;51.284;7.226;2022-07-12T04:22:06;17.90;99.90
21950;DHT22;11139;51.284;7.226;2022-07-12T04:24:34;17.80;99.90
21950;DHT22;11139;51.284;7.226;2022-07-12T04:26:59;17.80;99.90
21950;DHT22;11139;51.284;7.226;2022-07-12T04:29:25;17.80;99.90
21950;DHT22;11139;51.284;7.226;2022-07-12T04:31:51;17.80;99.90
21950;DHT22;11139;51.284;7.226;2022-07-12T04:34:16;17.80;99.90
21950;DHT22;11139;51.284;7.226;2022-07-12T04:36:45;17.80;99.90
21950;DHT22;11139;51.284;7.226;2022-07-12T04:39:14;17.80;99.90
21950;DHT22;11139;51.284;7.226;2022-07-12T04:41:39;17.80;99.90
21950;DHT22;11139;51.284;7.226;2022-07-12T04:44:05;17.80;99.90
21950;DHT22;11139;51.284;7.226;2022-07-12T04:46:32;17.80;99.90
21950;DHT22;11139;51.284;7.226;2022-07-12T04:48:57;17.80;99.90
21950;DHT22;11139;51.284;7.226;2022-07-12T04:51:23;17.80;99.90
21950;DHT22;11139;51.284;7.226;2022-07-12T04:53:49;17.80;99.90
21950;DHT22;11139;51.284;7.226;2022-07-12T04:56:14;17.70;99.90
21950;DHT22;11139;51.284;7.226;2022-07-12T04:58:40;17.70;99.90
21950;DHT22;11139;51.284;7.226;2022-07-12T05:01:05;17.70;99.90
21950;DHT22;11139;51.284;7.226;2022-07-12T05:03:34;17.70;99.90
21950;DHT22;11139;51.284;7.226;2022-07-12T05:06:00;17.70;99.90
21950;DHT22;11139;51.284;7.226;2022-07-12T05:08:25;17.70;99.90
21950;DHT22;11139;51.284;7.226;2022-07-12T05:10:51;17.70;99.90
21950;DHT22;11139;51.284;7.226;2022-07-12T05:13:17;17.70;99.90
21950;DHT22;11139;51.284;7.226;2022-07-12T05:15:45;17.70;99.90
21950;DHT22;11139;51.284;7.226;2022-07-12T05:18:10;17.70;99.90
21950;DHT22;11139;51.284;7.226;2022-07-12T05:20:36;17.70;99.90
21950;DHT22;11139;51.284;7.226;2022-07-12T05:23:01;17.70;99.90
21950;DHT22;11139;51.284;7.226;2022-07-12T05:25:27;17.70;99.90
21950;DHT22;11139;51.284;7.226;2022-07-12T05:27:53;17.70;99.90
21950;DHT22;11139;51.284;7.226;2022-07-12T05:30:18;17.70;99.90
21950;DHT22;11139;51.284;7.226;2022-07-12T05:32:44;17.60;99.90
21950;DHT22;11139;51.284;7.226;2022-07-12T05:35:09;17.70;99.90
21950;DHT22;11139;51.284;7.226;2022-07-12T05:37:35;17.70;99.90
21950;DHT22;11139;51.284;7.226;2022-07-12T05:40:00;17.70;99.90
21950;DHT22;11139;51.284;7.226;2022-07-12T05:42:26;17.70;99.90
21950;DHT22;11139;51.284;7.226;2022-07-12T05:44:51;17.60;99.90
21950;DHT22;11139;51.284;7.226;2022-07-12T05:47:17;17.60;99.90
21950;DHT22;11139;51.284;7.226;2022-07-12T05:49:42;17.60;99.90
21950;DHT22;11139;51.284;7.226;2022-07-12T05:52:08;17.60;99.90
21950;DHT22;11139;51.284;7.226;2022-07-12T05:54:52;17.60;99.90
21950;DHT22;11139;51.284;7.226;2022-07-12T05:57:18;17.60;99.90
21950;DHT22;11139;51.284;7.226;2022-07-12T05:59:44;17.70;99.90
21950;DHT22;11139;51.284;7.226;2022-07-12T06:02:10;17.70;99.90
21950;DHT22;11139;51.284;7.226;2022-07-12T06:04:36;17.60;99.90
21950;DHT22;11139;51.284;7.226;2022-07-12T06:07:01;17.60;99.90
21950;DHT22;11139;51.284;7.226;2022-07-12T06:09:27;17.60;99.90
21950;DHT22;11139;51.284;7.226;2022-07-12T06:11:52;17.60;99.90
21950;DHT22;11139;51.284;7.226;2022-07-12T06:14:18;17.60;99.90
21950;DHT22;11139;51.284;7.226;2022-07-12T06:16:44;17.60;99.90
21950;DHT22;11139;51.284;7.226;2022-07-12T06:19:09;17.60;99.90
21950;DHT22;11139;51.284;7.226;2022-07-12T06:21:35;17.60;99.90
21950;DHT22;11139;51.284;7.226;2022-07-12T06:24:00;17.60;99.90
21950;DHT22;11139;51.284;7.226;2022-07-12T06:26:26;17.60;99.90
21950;DHT22;11139;51.284;7.226;2022-07-12T06:28:52;17.60;99.90
21950;DHT22;11139;51.284;7.226;2022-07-12T06:31:18;17.60;99.90
21950;DHT22;11139;51.284;7.226;2022-07-12T06:33:43;17.60;99.90
21950;DHT22;11139;51.284;7.226;2022-07-12T06:36:09;17.60;99.90
21950;DHT22;11139;51.284;7.226;2022-07-12T06:38:35;17.60;99.90
21950;DHT22;11139;51.284;7.226;2022-07-12T06:41:00;17.60;99.90
21950;DHT22;11139;51.284;7.226;2022-07-12T06:43:26;17.60;99.90
21950;DHT22;11139;51.284;7.226;2022-07-12T06:45:51;17.60;99.90
21950;DHT22;11139;51.284;7.226;2022-07-12T06:48:18;17.60;99.90
21950;DHT22;11139;51.284;7.226;2022-07-12T06:50:43;17.60;99.90
21950;DHT22;11139;51.284;7.226;2022-07-12T06:53:11;17.60;99.90
21950;DHT22;11139;51.284;7.226;2022-07-12T06:55:36;17.60;99.90
21950;DHT22;11139;51.284;7.226;2022-07-12T06:58:02;17.60;99.90
21950;DHT22;11139;51.284;7.226;2022-07-12T07:00:28;17.60;99.90
21950;DHT22;11139;51.284;7.226;2022-07-12T07:02:53;17.60;99.90
21950;DHT22;11139;51.284;7.226;2022-07-12T07:05:19;17.60;99.90
21950;DHT22;11139;51.284;7.226;2022-07-12T07:07:45;17.60;99.90
21950;DHT22;11139;51.284;7.226;2022-07-12T07:10:10;17.60;99.90
21950;DHT22;11139;51.284;7.226;2022-07-12T07:12:36;17.60;99.90
21950;DHT22;11139;51.284;7.226;2022-07-12T07:15:01;17.60;99.90
21950;DHT22;11139;51.284;7.226;2022-07-12T07:17:27;17.60;99.90
21950;DHT22;11139;51.284;7.226;2022-07-12T07:19:52;17.70;99.90
21950;DHT22;11139;51.284;7.226;2022-07-12T07:22:18;17.60;99.90
21950;DHT22;11139;51.284;7.226;2022-07-12T07:24:44;17.70;99.90
21950;DHT22;11139;51.284;7.226;2022-07-12T07:27:10;17.70;99.90
21950;DHT22;11139;51.284;7.226;2022-07-12T07:29:35;17.70;99.90
21950;DHT22;11139;51.284;7.226;2022-07-12T07:32:20;17.70;99.90
21950;DHT22;11139;51.284;7.226;2022-07-12T07:34:45;17.60;99.90
21950;DHT22;11139;51.284;7.226;2022-07-12T07:37:11;17.70;99.90
21950;DHT22;11139;51.284;7.226;2022-07-12T07:39:36;17.60;99.90
21950;DHT22;11139;51.284;7.226;2022-07-12T07:42:02;17.60;99.90
21950;DHT22;11139;51.284;7.226;2022-07-12T07:44:28;17.70;99.90
21950;DHT22;11139;51.284;7.226;2022-07-12T07:46:53;17.70;99.90
21950;DHT22;11139;51.284;7.226;2022-07-12T07:49:19;17.70;99.90
21950;DHT22;11139;51.284;7.226;2022-07-12T07:51:44;17.70;99.90
21950;DHT22;11139;51.284;7.226;2022-07-12T07:54:10;17.60;99.90
21950;DHT22;11139;51.284;7.226;2022-07-12T07:56:35;17.70;99.90
21950;DHT22;11139;51.284;7.226;2022-07-12T07:59:01;17.70;99.90
21950;DHT22;11139;51.284;7.226;2022-07-12T08:01:26;17.70;99.90
21950;DHT22;11139;51.284;7.226;2022-07-12T08:04:11;17.70;99.90
21950;DHT22;11139;51.284;7.226;2022-07-12T08:06:36;17.70;99.90
21950;DHT22;11139;51.284;7.226;2022-07-12T08:09:02;17.70;99.90
21950;DHT22;11139;51.284;7.226;2022-07-12T08:11:27;17.70;99.90
21950;DHT22;11139;51.284;7.226;2022-07-12T08:13:53;17.70;99.90
21950;DHT22;11139;51.284;7.226;2022-07-12T08:16:18;17.70;99.90
21950;DHT22;11139;51.284;7.226;2022-07-12T08:18:44;17.70;99.90
21950;DHT22;11139;51.284;7.226;2022-07-12T08:21:09;17.70;99.90
21950;DHT22;11139;51.284;7.226;2022-07-12T08:23:35;17.70;99.90
21950;DHT22;11139;51.284;7.226;2022-07-12T08:26:00;17.70;99.90
21950;DHT22;11139;51.284;7.226;2022-07-12T08:28:26;17.70;99.90
21950;DHT22;11139;51.284;7.226;2022-07-12T08:30:51;17.70;99.90
21950;DHT22;11139;51.284;7.226;2022-07-12T08:33:17;17.70;99.90
21950;DHT22;11139;51.284;7.226;2022-07-12T08:35:42;17.80;99.90
21950;DHT22;11139;51.284;7.226;2022-07-12T08:38:08;17.80;99.90
21950;DHT22;11139;51.284;7.226;2022-07-12T08:40:35;17.80;99.90
21950;DHT22;11139;51.284;7.226;2022-07-12T08:43:01;17.70;99.90
21950;DHT22;11139;51.284;7.226;2022-07-12T08:45:26;17.70;99.90
21950;DHT22;11139;51.284;7.226;2022-07-12T08:47:52;17.80;99.90
21950;DHT22;11139;51.284;7.226;2022-07-12T08:50:21;17.70;99.90
21950;DHT22;11139;51.284;7.226;2022-07-12T08:53:14;17.70;99.90
21950;DHT22;11139;51.284;7.226;2022-07-12T08:59:23;17.70;99.90
21950;DHT22;11139;51.284;7.226;2022-07-12T09:34:40;17.80;99.90
21950;DHT22;11139;51.284;7.226;2022-07-12T09:44:04;17.80;99.90
21950;DHT22;11139;51.284;7.226;2022-07-12T09:50:09;17.80;99.90
21950;DHT22;11139;51.284;7.226;2022-07-12T09:52:59;17.80;99.90
21950;DHT22;11139;51.284;7.226;2022-07-12T09:55:42;17.80;99.90
21950;DHT22;11139;51.284;7.226;2022-07-12T10:01:18;17.70;99.90
21950;DHT22;11139;51.284;7.226;2022-07-12T10:07:19;17.80;99.90
21950;DHT22;11139;51.284;7.226;2022-07-12T10:22:42;17.80;99.90
21950;DHT22;11139;51.284;7.226;2022-07-12T10:25:55;17.80;99.90
21950;DHT22;11139;51.284;7.226;2022-07-12T10:32:07;17.90;99.90
21950;DHT22;11139;51.284;7.226;2022-07-12T10:44:32;17.90;99.90
21950;DHT22;11139;51.284;7.226;2022-07-12T11:15:16;18.00;99.90
21950;DHT22;11139;51.284;7.226;2022-07-12T11:42:19;18.00;99.90
21950;DHT22;11139;51.284;7.226;2022-07-12T11:51:48;18.20;99.90
21950;DHT22;11139;51.284;7.226;2022-07-12T12:04:43;18.40;99.90
21950;DHT22;11139;51.284;7.226;2022-07-12T12:07:06;18.40;99.90
21950;DHT22;11139;51.284;7.226;2022-07-12T12:09:55;18.50;99.90
21950;DHT22;11139;51.284;7.226;2022-07-12T12:12:20;18.40;99.90
21950;DHT22;11139;51.284;7.226;2022-07-12T12:14:45;18.30;99.90
21950;DHT22;11139;51.284;7.226;2022-07-12T12:17:17;18.30;99.90
21950;DHT22;11139;51.284;7.226;2022-07-12T12:19:56;18.50;99.90
21950;DHT22;11139;51.284;7.226;2022-07-12T12:22:36;18.40;99.90
21950;DHT22;11139;51.284;7.226;2022-07-12T12:25:03;18.50;99.90
21950;DHT22;11139;51.284;7.226;2022-07-12T12:27:29;18.50;99.90
21950;DHT22;11139;51.284;7.226;2022-07-12T12:29:58;18.50;99.90
21950;DHT22;11139;51.284;7.226;2022-07-12T12:32:23;18.40;99.90
21950;DHT22;11139;51.284;7.226;2022-07-12T12:35:05;18.40;99.90
21950;DHT22;11139;51.284;7.226;2022-07-12T12:37:31;18.40;99.90
21950;DHT22;11139;51.284;7.226;2022-07-12T12:39:56;18.40;99.90
21950;DHT22;11139;51.284;7.226;2022-07-12T12:42:25;18.40;99.90
21950;DHT22;11139;51.284;7.226;2022-07-12T12:44:53;18.40;99.90
21950;DHT22;11139;51.284;7.226;2022-07-12T12:47:19;18.40;99.90
21950;DHT22;11139;51.284;7.226;2022-07-12T12:49:57;18.40;99.90
21950;DHT22;11139;51.284;7.226;2022-07-12T12:52:26;18.40;99.90
21950;DHT22;11139;51.284;7.226;2022-07-12T12:54:52;18.40;99.90
21950;DHT22;11139;51.284;7.226;2022-07-12T12:57:18;18.50;99.90
21950;DHT22;11139;51.284;7.226;2022-07-12T12:59:44;18.60;99.90
21950;DHT22;11139;51.284;7.226;2022-07-12T13:02:10;18.70;99.90
21950;DHT22;11139;51.284;7.226;2022-07-12T13:04:36;18.70;99.90
21950;DHT22;11139;51.284;7.226;2022-07-12T13:07:02;18.80;99.90
21950;DHT22;11139;51.284;7.226;2022-07-12T13:09:29;18.80;99.90
21950;DHT22;11139;51.284;7.226;2022-07-12T13:11:55;18.70;99.90
21950;DHT22;11139;51.284;7.226;2022-07-12T13:14:21;18.70;99.90
21950;DHT22;11139;51.284;7.226;2022-07-12T13:16:46;18.80;99.90
21950;DHT22;11139;51.284;7.226;2022-07-12T13:19:12;18.80;99.90
21950;DHT22;11139;51.284;7.226;2022-07-12T13:21:37;18.80;99.90
21950;DHT22;11139;51.284;7.226;2022-07-12T13:24:03;18.90;99.90
21950;DHT22;11139;51.284;7.226;2022-07-12T13:26:29;18.90;99.90
21950;DHT22;11139;51.284;7.226;2022-07-12T13:28:55;18.90;99.90
21950;DHT22;11139;51.284;7.226;2022-07-12T13:31:21;18.80;99.90
21950;DHT22;11139;51.284;7.226;2022-07-12T13:33:46;18.80;99.90
21950;DHT22;11139;51.284;7.226;2022-07-12T13:36:12;18.70;99.90
21950;DHT22;11139;51.284;7.226;2022-07-12T13:38:41;18.70;99.90
21950;DHT22;11139;51.284;7.226;2022-07-12T13:41:07;18.70;99.90
21950;DHT22;11139;51.284;7.226;2022-07-12T13:43:32;18.70;99.90
21950;DHT22;11139;51.284;7.226;2022-07-12T13:45:58;18.70;99.90
21950;DHT22;11139;51.284;7.226;2022-07-12T13:48:24;18.70;99.90
21950;DHT22;11139;51.284;7.226;2022-07-12T13:50:50;18.80;99.90
21950;DHT22;11139;51.284;7.226;2022-07-12T13:53:15;18.80;99.90
21950;DHT22;11139;51.284;7.226;2022-07-12T13:55:42;18.80;99.90
21950;DHT22;11139;51.284;7.226;2022-07-12T13:58:08;18.80;99.90
21950;DHT22;11139;51.284;7.226;2022-07-12T14:00:34;18.80;99.90
21950;DHT22;11139;51.284;7.226;2022-07-12T14:02:59;18.80;99.90
21950;DHT22;11139;51.284;7.226;2022-07-12T14:05:25;18.80;99.90
21950;DHT22;11139;51.284;7.226;2022-07-12T14:07:50;18.80;99.90
21950;DHT22;11139;51.284;7.226;2022-07-12T14:10:17;18.90;99.90
21950;DHT22;11139;51.284;7.226;2022-07-12T14:12:45;19.10;99.90
21950;DHT22;11139;51.284;7.226;2022-07-12T14:15:11;19.10;99.90
21950;DHT22;11139;51.284;7.226;2022-07-12T14:17:49;19.20;99.90
21950;DHT22;11139;51.284;7.226;2022-07-12T14:20:19;19.30;99.90
21950;DHT22;11139;51.284;7.226;2022-07-12T14:22:46;19.30;99.90
21950;DHT22;11139;51.284;7.226;2022-07-12T14:25:12;19.30;99.90
21950;DHT22;11139;51.284;7.226;2022-07-12T14:27:38;19.10;99.90
21950;DHT22;11139;51.284;7.226;2022-07-12T14:30:04;19.20;99.90
21950;DHT22;11139;51.284;7.226;2022-07-12T14:32:33;19.20;99.90
21950;DHT22;11139;51.284;7.226;2022-07-12T14:34:59;19.10;99.90
21950;DHT22;11139;51.284;7.226;2022-07-12T14:37:24;19.10;99.90
21950;DHT22;11139;51.284;7.226;2022-07-12T14:39:50;19.10;99.90
21950;DHT22;11139;51.284;7.226;2022-07-12T14:42:15;19.10;99.90
21950;DHT22;11139;51.284;7.226;2022-07-12T14:44:53;19.20;99.90
21950;DHT22;11139;51.284;7.226;2022-07-12T14:47:22;19.20;99.90
21950;DHT22;11139;51.284;7.226;2022-07-12T14:50:14;19.20;99.90
21950;DHT22;11139;51.284;7.226;2022-07-12T14:52:42;19.20;99.90
21950;DHT22;11139;51.284;7.226;2022-07-12T14:55:08;19.10;99.90
21950;DHT22;11139;51.284;7.226;2022-07-12T14:57:33;19.10;99.90
21950;DHT22;11139;51.284;7.226;2022-07-12T14:59:59;19.10;99.90
21950;DHT22;11139;51.284;7.226;2022-07-12T15:02:25;19.10;99.90
21950;DHT22;11139;51.284;7.226;2022-07-12T15:04:51;19.20;99.90
21950;DHT22;11139;51.284;7.226;2022-07-12T15:07:17;19.20;99.90
21950;DHT22;11139;51.284;7.226;2022-07-12T15:09:43;19.20;99.90
21950;DHT22;11139;51.284;7.226;2022-07-12T15:12:09;19.30;99.90
21950;DHT22;11139;51.284;7.226;2022-07-12T15:14:34;19.40;99.90
21950;DHT22;11139;51.284;7.226;2022-07-12T15:17:00;19.40;99.90
21950;DHT22;11139;51.284;7.226;2022-07-12T15:19:28;19.40;99.90
21950;DHT22;11139;51.284;7.226;2022-07-12T15:21:53;19.40;99.90
21950;DHT22;11139;51.284;7.226;2022-07-12T15:24:20;19.40;99.90
21950;DHT22;11139;51.284;7.226;2022-07-12T15:26:46;19.40;99.90
21950;DHT22;11139;51.284;7.226;2022-07-12T15:29:12;19.40;99.90
21950;DHT22;11139;51.284;7.226;2022-07-12T15:31:37;19.40;99.90
21950;DHT22;11139;51.284;7.226;2022-07-12T15:34:03;19.40;99.90
21950;DHT22;11139;51.284;7.226;2022-07-12T15:36:31;19.40;99.90
21950;DHT22;11139;51.284;7.226;2022-07-12T15:39:07;19.40;99.90
21950;DHT22;11139;51.284;7.226;2022-07-12T15:41:36;19.40;99.90
21950;DHT22;11139;51.284;7.226;2022-07-12T15:44:01;19.40;99.90
21950;DHT22;11139;51.284;7.226;2022-07-12T15:46:28;19.40;99.90
21950;DHT22;11139;51.284;7.226;2022-07-12T15:48:54;19.40;99.90
21950;DHT22;11139;51.284;7.226;2022-07-12T15:51:20;19.40;99.90
21950;DHT22;11139;51.284;7.226;2022-07-12T15:54:05;19.40;99.90
21950;DHT22;11139;51.284;7.226;2022-07-12T15:56:31;20.00;99.90
21950;DHT22;11139;51.284;7.226;2022-07-12T15:59:02;20.60;99.90
21950;DHT22;11139;51.284;7.226;2022-07-12T16:01:28;21.00;99.10
21950;DHT22;11139;51.284;7.226;2022-07-12T16:03:54;21.40;98.30
21950;DHT22;11139;51.284;7.226;2022-07-12T16:06:22;22.00;97.30
21950;DHT22;11139;51.284;7.226;2022-07-12T16:08:50;21.90;97.10
21950;DHT22;11139;51.284;7.226;2022-07-12T16:11:21;21.80;97.20
21950;DHT22;11139;51.284;7.226;2022-07-12T16:13:50;21.80;97.20
21950;DHT22;11139;51.284;7.226;2022-07-12T16:16:16;21.80;97.10
21950;DHT22;11139;51.284;7.226;2022-07-12T16:18:45;21.80;97.10
21950;DHT22;11139;51.284;7.226;2022-07-12T16:21:10;21.80;97.00
21950;DHT22;11139;51.284;7.226;2022-07-12T16:23:36;21.80;97.00
21950;DHT22;11139;51.284;7.226;2022-07-12T16:26:11;21.70;97.10
21950;DHT22;11139;51.284;7.226;2022-07-12T16:28:36;21.70;97.30
21950;DHT22;11139;51.284;7.226;2022-07-12T16:31:02;21.70;97.40
21950;DHT22;11139;51.284;7.226;2022-07-12T16:33:30;21.60;97.50
21950;DHT22;11139;51.284;7.226;2022-07-12T16:35:56;21.60;97.70
21950;DHT22;11139;51.284;7.226;2022-07-12T16:38:21;21.60;97.70
21950;DHT22;11139;51.284;7.226;2022-07-12T16:40:47;21.60;97.70
21950;DHT22;11139;51.284;7.226;2022-07-12T16:43:13;21.60;97.70
21950;DHT22;11139;51.284;7.226;2022-07-12T16:45:38;21.50;97.80
21950;DHT22;11139;51.284;7.226;2022-07-12T16:48:04;21.50;97.80
21950;DHT22;11139;51.284;7.226;2022-07-12T16:50:30;21.50;97.90
21950;DHT22;11139;51.284;7.226;2022-07-12T16:52:56;21.60;96.90
21950;DHT22;11139;51.284;7.226;2022-07-12T16:55:21;21.80;96.30
21950;DHT22;11139;51.284;7.226;2022-07-12T16:57:47;21.90;96.10
21950;DHT22;11139;51.284;7.226;2022-07-12T17:00:13;22.00;95.80
21950;DHT22;11139;51.284;7.226;2022-07-12T17:02:40;22.00;95.40
21950;DHT22;11139;51.284;7.226;2022-07-12T17:05:05;22.00;95.40
21950;DHT22;11139;51.284;7.226;2022-07-12T17:07:32;22.00;95.40
21950;DHT22;11139;51.284;7.226;2022-07-12T17:09:58;22.00;95.20
21950;DHT22;11139;51.284;7.226;2022-07-12T17:12:24;22.10;95.10
21950;DHT22;11139;51.284;7.226;2022-07-12T17:14:50;22.10;94.90
21950;DHT22;11139;51.284;7.226;2022-07-12T17:17:15;22.10;94.90
21950;DHT22;11139;51.284;7.226;2022-07-12T17:19:41;22.20;94.90
21950;DHT22;11139;51.284;7.226;2022-07-12T17:22:06;22.10;94.70
21950;DHT22;11139;51.284;7.226;2022-07-12T17:24:32;22.20;94.60
21950;DHT22;11139;51.284;7.226;2022-07-12T17:26:57;22.00;95.00
21950;DHT22;11139;51.284;7.226;2022-07-12T17:29:23;21.80;95.60
21950;DHT22;11139;51.284;7.226;2022-07-12T17:31:49;21.80;95.90
21950;DHT22;11139;51.284;7.226;2022-07-12T17:34:14;21.90;95.30
21950;DHT22;11139;51.284;7.226;2022-07-12T17:36:40;22.00;95.20
21950;DHT22;11139;51.284;7.226;2022-07-12T17:39:05;21.80;95.70
21950;DHT22;11139;51.284;7.226;2022-07-12T17:41:31;21.70;96.20
21950;DHT22;11139;51.284;7.226;2022-07-12T17:43:57;21.80;95.60
21950;DHT22;11139;51.284;7.226;2022-07-12T17:46:25;21.90;95.00
21950;DHT22;11139;51.284;7.226;2022-07-12T17:48:51;22.00;94.70
21950;DHT22;11139;51.284;7.226;2022-07-12T17:51:16;22.10;94.50
21950;DHT22;11139;51.284;7.226;2022-07-12T17:53:42;22.10;94.30
21950;DHT22;11139;51.284;7.226;2022-07-12T17:56:08;22.20;94.30
21950;DHT22;11139;51.284;7.226;2022-07-12T17:58:33;22.00;94.90
21950;DHT22;11139;51.284;7.226;2022-07-12T18:01:07;21.80;95.50
21950;DHT22;11139;51.284;7.226;2022-07-12T18:03:33;21.80;95.20